Latest Weather Observations for Kuitpo

IDS60801

Issued at 10:31 am CST Friday 24 May 2024 (issued every 10 minutes, with the page automatically refreshed every 10 minutes)

About weather observations | Map of weather stations | Latest weather observations for SA | Other Formats
Station Details ID: 023887 Name: KUITPO FOREST RESERVE Lat: -35.17 Lon: 138.68 Height: 365.0 m
Data from the previous 72 hours. | See also: Recent months at Kuitpo
Date/Time
CST
Temp
°C
App
Temp
°C
Dew
Point
°C
Rel
Hum
%
Delta-T
°C
Wind Press
QNH
hPa
Press
MSL
hPa
Rain since
9am
mm
Dir  Spd
km/h
Gust
km/h
Spd
kts
Gust
kts
24/10:30am 13.7 10.6 5.6 58 3.9 NNE 11 17 6 9 1026.0 1025.9 0.0
24/10:00am 12.2 9.9 5.8 65 3.1 NE 7 15 4 8 1025.9 1025.8 0.0
24/09:30am 10.1 6.8 4.7 69 2.5 ENE 11 15 6 8 1025.8 1025.7 0.0
24/09:00am 9.6 5.9 4.6 71 2.3 ENE 13 19 7 10 1026.0 1025.9 0.0
24/08:30am 8.8 5.1 4.2 73 2.0 ENE 13 20 7 11 1026.0 1025.9 0.0
24/08:00am 8.3 4.1 3.6 72 2.1 ENE 15 19 8 10 1025.9 1025.8 0.0
24/07:30am 8.4 3.8 3.5 71 2.1 ENE 17 22 9 12 1025.6 1025.5 0.0
24/07:00am 8.4 4.5 3.3 70 2.2 ENE 13 20 7 11 1025.6 1025.5 0.0
24/06:30am 8.7 3.4 3.1 68 2.4 E 20 28 11 15 1025.1 1024.9 0.0
24/06:00am 8.3 3.3 3.6 72 2.1 E 19 22 10 12 1025.1 1024.9 0.0
24/05:30am 8.1 3.5 3.8 74 1.9 E 17 22 9 12 1025.1 1024.9 0.0
24/05:00am 8.2 3.3 3.9 74 1.9 E 19 20 10 11 1025.0 1024.8 0.0
24/04:30am 8.3 3.4 3.9 74 1.9 E 19 24 10 13 1024.9 1024.7 0.0
24/04:00am 8.6 3.5 4.0 73 2.0 E 20 26 11 14 1024.6 1024.5 0.0
24/03:30am 8.7 3.6 4.3 74 2.0 E 20 24 11 13 1024.9 1024.7 0.0
24/03:00am 8.6 3.8 4.4 75 1.9 E 19 26 10 14 1025.1 1024.9 0.0
24/02:30am 8.5 3.5 4.5 76 1.8 E 20 28 11 15 1025.1 1024.9 0.0
24/02:00am 8.0 3.2 4.9 81 1.4 E 19 24 10 13 1025.2 1025.0 0.0
24/01:30am 8.0 3.3 5.3 83 1.2 E 19 22 10 12 1025.3 1025.1 0.0
24/01:00am 7.7 4.3 5.8 88 0.9 E 13 17 7 9 1025.6 1025.5 0.0
24/12:30am 7.7 3.9 6.0 89 0.8 E 15 19 8 10 1025.2 1025.0 0.0
24/12:00am 8.1 4.0 6.1 87 0.9 E 17 24 9 13 1025.3 1025.1 0.0
 
Date/Time
CST
Temp
°C
App
Temp
°C
Dew
Point
°C
Rel
Hum
%
Delta-T
°C
Wind Press
QNH
hPa
Press
MSL
hPa
Rain since
9am
mm
Dir  Spd
km/h
Gust
km/h
Spd
kts
Gust
kts
23/11:30pm 8.2 3.7 6.0 86 1.0 E 19 26 10 14 1025.2 1025.0 0.0
23/11:00pm 8.4 3.9 6.0 85 1.1 E 19 24 10 13 1025.5 1025.3 0.0
23/10:30pm 8.4 3.8 6.4 87 0.9 E 20 28 11 15 1025.6 1025.5 0.0
23/10:00pm 8.2 3.1 6.2 87 0.9 E 22 32 12 17 1025.8 1025.7 0.0
23/09:30pm 8.1 3.6 6.2 88 0.9 ESE 19 26 10 14 1026.0 1025.9 0.0
23/09:00pm 8.4 3.8 6.7 89 0.8 ESE 20 26 11 14 1025.8 1025.7 0.0
23/08:30pm 8.2 3.6 6.5 89 0.8 ESE 20 26 11 14 1025.7 1025.6 0.0
23/08:00pm 8.0 4.2 6.0 87 0.9 ESE 15 20 8 11 1025.6 1025.5 0.0
23/07:30pm 8.1 4.3 5.6 84 1.1 ESE 15 19 8 10 1025.8 1025.7 0.0
23/07:00pm 8.5 4.2 5.1 79 1.6 ESE 17 20 9 11 1025.7 1025.6 0.0
23/06:30pm 8.9 4.2 5.3 78 1.6 ESE 19 26 10 14 1025.6 1025.5 0.0
23/06:00pm 8.8 4.2 5.4 79 1.6 ESE 19 22 10 12 1025.5 1025.3 0.0
23/05:30pm 9.3 5.1 5.7 78 1.7 ESE 17 19 9 10 1025.4 1025.2 0.0
23/05:00pm 10.1 6.7 5.7 74 2.1 ESE 13 17 7 9 1025.3 1025.1 0.0
23/04:30pm 10.9 7.7 5.0 67 2.7 E 11 15 6 8 1025.1 1024.9 0.0
23/04:00pm 11.9 8.4 5.3 64 3.1 E 13 17 7 9 1025.1 1024.9 0.0
23/03:30pm 12.8 9.7 5.5 61 3.5 E 11 15 6 8 1025.1 1024.9 0.0
23/03:00pm 12.6 9.9 5.8 63 3.2 E 9 13 5 7 1025.3 1025.1 0.0
23/02:30pm 13.4 11.0 5.1 57 3.9 S 7 13 4 7 1025.4 1025.2 0.0
23/02:00pm 12.7 9.9 5.1 60 3.6 SE 9 13 5 7 1025.4 1025.2 0.0
23/01:30pm 12.4 10.9 5.1 61 3.4 ESE 2 7 1 4 1025.8 1025.7 0.0
23/01:00pm 12.7 10.3 5.4 61 3.5 NE 7 11 4 6 1026.1 1026.0 0.0
23/12:30pm 12.2 9.5 5.4 63 3.2 ENE 9 13 5 7 1026.3 1026.2 0.0
23/12:00pm 12.1 9.4 5.7 65 3.0 NE 9 13 5 7 1026.7 1026.6 0.0
23/11:30am 11.5 8.3 5.2 65 2.9 ENE 11 15 6 8 1027.3 1027.2 0.0
23/11:00am 11.4 8.8 6.1 70 2.5 ENE 9 15 5 8 1027.4 1027.3 0.0
23/10:30am 10.9 8.5 6.8 76 2.0 ENE 9 11 5 6 1027.5 1027.4 0.0
23/10:00am 10.1 7.3 7.0 81 1.5 ENE 11 15 6 8 1027.0 1026.9 0.0
23/09:30am 9.2 6.3 6.6 84 1.2 ENE 11 17 6 9 1027.0 1026.9 0.0
23/09:00am 8.6 5.3 6.4 86 1.0 NE 13 19 7 10 1027.4 1027.3 0.0
23/08:30am 7.9 4.9 7.5 97 0.2 ENE 13 17 7 9 1027.2 1027.1 0.0
23/08:00am 6.0 3.0 6.0 100 0.0 NE 11 15 6 8 1027.2 1027.1 0.0
23/07:30am 5.7 2.6 5.7 100 0.0 NE 11 15 6 8 1026.8 1026.7 0.0
23/07:00am 5.4 2.7 5.4 100 0.0 NE 9 15 5 8 1026.7 1026.6 0.0
23/06:30am 5.5 2.4 5.5 100 0.0 NE 11 17 6 9 1026.4 1026.3 0.0
23/06:00am 5.4 2.3 5.4 100 0.0 NE 11 17 6 9 1026.3 1026.2 0.0
23/05:30am 5.3 2.5 5.2 99 0.0 NE 9 15 5 8 1026.1 1026.0 0.0
23/05:00am 5.4 3.0 5.3 99 0.0 NNE 7 11 4 6 1026.3 1026.2 0.0
23/04:30am 5.5 2.8 5.4 99 0.0 ENE 9 13 5 7 1026.0 1025.9 0.0
23/04:00am 5.3 2.5 5.0 98 0.1 ENE 9 13 5 7 1026.0 1025.9 0.0
23/03:30am 5.7 2.2 5.4 98 0.1 ENE 13 17 7 9 1025.8 1025.7 0.0
23/03:00am 5.7 2.2 5.3 97 0.2 ENE 13 17 7 9 1026.0 1025.9 0.0
23/02:30am 5.8 2.3 5.4 97 0.2 ENE 13 17 7 9 1026.2 1026.1 0.0
23/02:00am 5.8 2.6 5.1 95 0.3 ENE 11 15 6 8 1026.3 1026.2 0.0
23/01:30am 6.4 3.3 5.5 94 0.4 ENE 11 15 6 8 1026.3 1026.2 0.0
23/01:00am 6.5 3.0 5.5 93 0.5 E 13 17 7 9 1026.3 1026.2 0.0
23/12:30am 6.5 3.0 5.3 92 0.5 E 13 15 7 8 1026.4 1026.3 0.0
23/12:00am 6.6 2.7 5.4 92 0.5 E 15 17 8 9 1026.6 1026.5 0.0
 
Date/Time
CST
Temp
°C
App
Temp
°C
Dew
Point
°C
Rel
Hum
%
Delta-T
°C
Wind Press
QNH
hPa
Press
MSL
hPa
Rain since
9am
mm
Dir  Spd
km/h
Gust
km/h
Spd
kts
Gust
kts
22/11:30pm 6.7 2.8 5.3 91 0.6 ESE 15 20 8 11 1026.5 1026.4 0.0
22/11:00pm 6.9 2.7 5.7 92 0.5 ESE 17 22 9 12 1026.4 1026.3 0.0
22/10:30pm 6.7 2.5 5.7 93 0.5 ESE 17 22 9 12 1026.5 1026.4 0.0
22/10:00pm 6.7 2.8 5.5 92 0.5 ESE 15 22 8 12 1026.8 1026.7 0.0
22/09:30pm 6.5 2.6 5.3 92 0.5 ESE 15 19 8 10 1026.8 1026.7 0.0
22/09:00pm 6.6 2.6 5.1 90 0.7 ESE 15 19 8 10 1026.6 1026.5 0.0
22/08:30pm 6.8 2.9 5.3 90 0.7 ESE 15 20 8 11 1026.6 1026.5 0.0
22/08:00pm 6.9 3.4 5.4 90 0.7 ESE 13 19 7 10 1026.7 1026.6 0.0
22/07:30pm 7.1 3.2 5.4 89 0.8 SE 15 20 8 11 1026.8 1026.7 0.0
22/07:00pm 7.2 3.3 5.5 89 0.8 SE 15 20 8 11 1026.6 1026.5 0.0
22/06:30pm 7.5 3.6 5.5 87 0.9 SE 15 20 8 11 1026.4 1026.3 0.0
22/06:00pm 7.9 4.4 5.5 85 1.1 SE 13 19 7 10 1026.1 1026.0 0.0
22/05:30pm 8.4 4.9 5.5 82 1.3 SE 13 20 7 11 1026.0 1025.9 0.0
22/05:00pm 9.4 5.9 5.6 77 1.8 SE 13 19 7 10 1026.2 1026.1 0.0
22/04:30pm 10.9 7.5 5.7 70 2.4 SE 13 19 7 10 1026.0 1025.9 0.0
22/04:00pm 12.1 9.8 5.5 64 3.1 SSE 7 13 4 7 1026.0 1025.9 0.0
22/03:30pm 12.9 10.2 5.8 62 3.4 SW 9 13 5 7 1025.8 1025.7 0.0
22/03:00pm 13.7 11.5 6.1 60 3.7 SE 7 11 4 6 1025.8 1025.7 0.0
22/02:30pm 14.0 12.0 6.1 59 3.8 SSE 6 11 3 6 1025.9 1025.8 0.0
22/02:00pm 14.0 11.6 5.4 56 4.1 ESE 7 13 4 7 1025.9 1025.8 0.0
22/01:30pm 13.8 11.0 5.2 56 4.1 SW 9 13 5 7 1026.1 1026.0 0.0
22/01:00pm 14.0 12.3 5.9 58 3.9 WSW 4 9 2 5 1026.4 1026.3 0.0
22/12:30pm 13.6 11.3 5.5 58 3.9 WNW 7 13 4 7 1027.0 1026.9 0.0
22/12:00pm 12.7 10.4 4.9 59 3.6 N 6 9 3 5 1027.4 1027.3 0.0
22/11:30am 12.6 10.2 5.3 61 3.4 N 7 15 4 8 1027.9 1027.7 0.0
22/11:00am 11.9 9.5 5.3 64 3.1 WNW 7 11 4 6 1028.5 1028.4 0.0
22/10:30am 11.5 9.3 5.4 66 2.9 ESE 6 11 3 6 1028.6 1028.5 0.0
22/10:00am 10.8 8.7 5.8 71 2.4 E 6 13 3 7 1028.7 1028.6 0.0
22/09:30am 10.0 7.9 5.6 74 2.0 SE 6 13 3 7 1028.5 1028.4 0.0
22/09:00am 9.1 6.4 5.5 78 1.7 ESE 9 11 5 6 1028.5 1028.4 0.0
22/08:30am 8.2 6.0 5.3 82 1.3 ESE 6 9 3 5 1028.5 1028.4 0.0
22/08:00am 6.3 3.4 4.9 91 0.6 E 9 9 5 5 1028.2 1028.1 0.0
22/07:30am 5.7 3.1 4.2 90 0.6 ESE 7 9 4 5 1027.9 1027.7 0.0
22/07:00am 6.2 3.3 4.4 88 0.8 ESE 9 11 5 6 1027.8 1027.6 0.0
22/06:30am 6.2 3.8 4.2 87 0.9 SE 6 7 3 4 1027.6 1027.5 0.0
22/06:00am 6.3 3.7 4.3 87 0.9 ESE 7 9 4 5 1027.3 1027.2 0.0
22/05:30am 6.6 3.6 4.3 85 1.0 ESE 9 11 5 6 1027.1 1027.0 0.0
22/05:00am 7.0 4.4 4.3 83 1.2 SE 7 11 4 6 1027.1 1027.0 0.0
22/04:30am 7.4 4.8 4.2 80 1.4 SE 7 13 4 7 1027.2 1027.1 0.0
22/04:00am 7.9 5.4 4.5 79 1.5 SSE 7 11 4 6 1027.3 1027.2 0.0
22/03:30am 7.7 5.1 4.3 79 1.5 ESE 7 9 4 5 1027.3 1027.2 0.0
22/03:00am 7.8 5.3 4.6 80 1.4 SE 7 11 4 6 1027.5 1027.4 0.0
22/02:30am 7.6 5.2 4.4 80 1.4 ESE 6 9 3 5 1027.5 1027.4 0.0
22/02:00am 7.6 4.3 4.4 80 1.4 E 11 15 6 8 1027.4 1027.3 0.0
22/01:30am 7.7 5.1 4.3 79 1.5 ESE 7 11 4 6 1027.9 1027.7 0.0
22/01:00am 7.7 4.3 4.1 78 1.6 ESE 11 17 6 9 1028.0 1027.9 0.0
22/12:30am 7.9 4.6 4.3 78 1.6 E 11 13 6 7 1028.2 1028.1 0.0
22/12:00am 8.1 4.8 4.5 78 1.6 E 11 17 6 9 1028.5 1028.4 0.0
 
Date/Time
CST
Temp
°C
App
Temp
°C
Dew
Point
°C
Rel
Hum
%
Delta-T
°C
Wind Press
QNH
hPa
Press
MSL
hPa
Rain since
9am
mm
Dir  Spd
km/h
Gust
km/h
Spd
kts
Gust
kts
21/11:30pm 8.0 4.7 4.4 78 1.6 E 11 15 6 8 1028.6 1028.5 0.0
21/11:00pm 7.8 4.4 4.2 78 1.6 E 11 15 6 8 1028.7 1028.6 0.0
21/10:30pm 7.6 4.6 4.2 79 1.5 E 9 13 5 7 1029.0 1028.9 0.0
21/10:00pm 7.7 3.6 4.1 78 1.6 E 15 22 8 12 1029.0 1028.9 0.0
21/09:30pm 7.6 3.9 4.2 79 1.5 E 13 20 7 11 1029.1 1029.0 0.0
21/09:00pm 8.0 3.8 4.0 76 1.8 ESE 15 24 8 13 1029.1 1029.0 0.0
21/08:30pm 8.2 4.1 4.4 77 1.7 ESE 15 28 8 15 1029.0 1028.9 0.0
21/08:00pm 8.5 4.1 4.9 78 1.6 ESE 17 24 9 13 1029.1 1029.0 0.0
21/07:30pm 8.6 4.2 4.6 76 1.8 ESE 17 26 9 14 1029.2 1029.1 0.0
21/07:00pm 8.4 4.2 4.0 74 2.0 ESE 15 26 8 14 1029.0 1028.9 0.0
21/06:30pm 8.6 4.9 4.2 74 2.0 ESE 13 20 7 11 1029.1 1029.0 0.0
21/06:00pm 8.6 5.2 4.0 73 2.0 SE 11 19 6 10 1029.1 1029.0 0.0
21/05:30pm 8.7 5.7 3.9 72 2.1 SE 9 17 5 9 1028.9 1028.8 0.0
21/05:00pm 9.2 5.5 4.2 71 2.2 ESE 13 22 7 12 1028.8 1028.7 0.0
21/04:30pm 9.7 5.6 4.3 69 2.4 ESE 15 26 8 14 1028.5 1028.4 0.0
21/04:00pm 10.5 6.8 4.6 67 2.7 SSE 13 20 7 11 1028.6 1028.5 0.0
21/03:30pm 11.3 8.0 4.7 64 3.0 SSE 11 17 6 9 1028.6 1028.5 0.0
21/03:00pm 10.9 7.2 4.6 65 2.9 ESE 13 20 7 11 1028.7 1028.6 0.0
21/02:30pm 11.1 7.4 4.3 63 3.1 ESE 13 24 7 13 1028.8 1028.7 0.0
21/02:00pm 11.2 7.6 4.9 65 2.9 ESE 13 22 7 12 1029.0 1028.9 0.0
21/01:30pm 10.8 6.8 4.9 67 2.7 SE 15 28 8 15 1029.2 1029.1 0.0
21/01:00pm 10.6 6.6 4.9 68 2.6 SE 15 24 8 13 1029.6 1029.5 0.0
21/12:30pm 10.6 6.3 5.4 70 2.4 ESE 17 28 9 15 1029.9 1029.8 0.0
21/12:00pm 10.5 6.6 5.3 70 2.4 ESE 15 26 8 14 1030.3 1030.3 0.0
21/11:30am 9.9 6.0 5.5 74 2.0 SE 15 26 8 14 1030.9 1030.8 0.0
21/11:00am 10.1 7.1 5.9 75 2.0 ESE 11 19 6 10 1031.1 1031.0 0.0

Other formats

Comma delimited format used in spreadsheet applications
http://www.bom.gov.au/fwo/IDS60801/IDS60801.94683.axf

JavaScript Object Notation format (JSON) in row-major order
http://www.bom.gov.au/fwo/IDS60801/IDS60801.94683.json

Data quality

Most of these data are generated automatically and are frequently updated. Quality checks on data are not normally performed. It is possible for incorrect values to appear. Refer to information at About Latest Weather Observations and please check the disclaimer before using these data.